Stations météo

réclame
Mon MeteoGroup
Xinzo De Limia, Espagne (8050): Température de l'air & dewpoint: 12.01.2020 14:00:00 - 18.01.2020 14:00:00 (CET)Xinzo De Limia, Espagne (8050): Vitesse du vent & gusts: 12.01.2020 14:00:00 - 18.01.2020 14:00:00 (CET)Xinzo De Limia, Espagne (8050): Direction du vent: 12.01.2020 14:00:00 - 18.01.2020 14:00:00 (CET)Xinzo De Limia, Espagne (8050): Quantités de précipitations: 12.01.2020 14:00:00 - 18.01.2020 14:00:00 (CET)
Date & Time tt [°C] td [°C] ff [km/h] ff [knt] fx [km/h] fx [knt] dd rr [mm]
18.01.2020 14:00:00 - - - - - - - -
18.01.2020 13:00:00 12,1 9,2 10 6 26 14 SW -
18.01.2020 12:00:00 9,5 7,4 11 6 37 20 SE 0,0
18.01.2020 11:00:00 7,0 5,8 23 12 39 21 SE 0,0
18.01.2020 10:00:00 5,3 4,1 19 11 35 19 SE 0,0
18.01.2020 09:00:00 4,8 3,6 18 10 34 18 SE 0,0
18.01.2020 08:00:00 4,6 3,4 19 10 37 20 SE 0,0
18.01.2020 07:00:00 4,1 2,7 21 12 41 22 SE -
18.01.2020 06:00:00 4,2 2,5 17 9 34 18 SE 0,4
18.01.2020 05:00:00 4,1 1,7 18 10 36 19 SE 0,2
18.01.2020 04:00:00 4,7 1,3 21 11 41 22 SE 0,0
18.01.2020 03:00:00 4,5 1,1 18 10 33 18 SSE 0,1
18.01.2020 02:00:00 5,0 -0,3 16 9 27 14 SE 0,0
18.01.2020 01:00:00 5,2 -0,3 13 7 21 12 SE -
18.01.2020 00:00:00 5,3 0,0 13 7 22 12 SE 0,0
17.01.2020 23:00:00 5,2 0,6 11 6 21 11 SE 0,0
17.01.2020 22:00:00 5,1 1,3 13 7 24 13 SE 0,0
17.01.2020 21:00:00 4,9 1,5 9 5 16 9 SE 0,0
17.01.2020 20:00:00 5,1 1,9 8 4 14 7 SE 0,0
17.01.2020 19:00:00 5,5 1,7 3 1 4 2 SW -
17.01.2020 18:00:00 6,3 1,3 0 0 9 5 E 0,0
17.01.2020 17:00:00 7,3 0,2 2 1 8 4 N 0,0
17.01.2020 16:00:00 7,9 1,3 5 3 15 8 WSW 0,0
17.01.2020 15:00:00 7,3 1,7 1 0 7 4 NNW 0,0
17.01.2020 14:00:00 7,3 2,7 4 2 9 5 NNE 0,0
17.01.2020 13:00:00 6,9 3,0 4 2 12 7 NNW -
17.01.2020 12:00:00 6,2 3,9 3 2 10 6 WSW 0,0
17.01.2020 11:00:00 5,8 4,5 5 3 10 5 SW 0,0
17.01.2020 10:00:00 2,7 1,5 1 0 10 5 SW 0,0
17.01.2020 09:00:00 2,9 1,7 5 3 17 9 W 0,7
17.01.2020 08:00:00 2,7 1,3 4 2 9 5 W 0,1
17.01.2020 07:00:00 2,5 1,3 2 1 16 9 WSW -
17.01.2020 06:00:00 4,3 3,0 11 6 29 15 W 0,4
17.01.2020 05:00:00 4,2 3,0 3 2 13 7 WSW 0,0
17.01.2020 04:00:00 5,4 4,1 8 5 16 9 W 0,7
17.01.2020 03:00:00 5,8 4,5 6 4 32 17 SW 1,5
17.01.2020 02:00:00 5,8 4,5 5 3 13 7 SSW 0,0
17.01.2020 01:00:00 5,7 4,1 5 3 10 5 SSW -
17.01.2020 00:00:00 5,9 4,3 7 4 26 14 S 1,5
16.01.2020 23:00:00 7,0 4,8 8 4 19 10 WSW 0,5
16.01.2020 22:00:00 7,3 4,8 3 2 18 10 WSW 0,0
16.01.2020 21:00:00 7,1 4,6 2 1 23 12 NE 0,0
16.01.2020 20:00:00 8,2 5,1 11 6 36 20 WSW 0,0
16.01.2020 19:00:00 8,3 5,5 17 9 45 25 SSE -
16.01.2020 18:00:00 8,3 4,8 16 9 32 17 SE 0,0
16.01.2020 17:00:00 9,0 3,4 11 6 38 21 S 0,0
16.01.2020 16:00:00 9,5 3,2 20 11 44 24 S 0,0
16.01.2020 15:00:00 10,3 2,5 21 12 51 27 S 0,1
16.01.2020 14:00:00 11,0 4,6 23 12 48 26 S 0,0
16.01.2020 13:00:00 10,1 6,1 22 12 48 26 S -
16.01.2020 12:00:00 10,4 7,4 19 11 37 20 S 0,0
16.01.2020 11:00:00 10,0 8,0 15 8 30 16 SSE 0,4
16.01.2020 10:00:00 9,9 7,6 21 11 39 21 S 0,7
16.01.2020 09:00:00 10,2 6,5 16 9 34 19 SSE 0,1
16.01.2020 08:00:00 10,0 6,7 18 10 38 21 SSE 0,0
16.01.2020 07:00:00 10,6 7,1 19 11 35 19 S -
16.01.2020 06:00:00 10,6 8,5 18 10 32 18 S 0,0
16.01.2020 05:00:00 9,6 8,3 15 8 36 19 SSE 0,4
16.01.2020 04:00:00 9,6 8,0 19 10 39 21 SE 0,1
16.01.2020 03:00:00 9,8 7,7 22 12 40 21 SE 0,0
16.01.2020 02:00:00 10,5 7,1 22 12 41 22 SSE 0,0
16.01.2020 01:00:00 11,2 6,1 21 12 37 20 S -
16.01.2020 00:00:00 11,0 6,5 18 10 39 21 S 0,0
15.01.2020 23:00:00 10,6 8,4 18 10 36 19 S 0,0
15.01.2020 22:00:00 9,6 7,8 21 12 32 17 SSE 0,1
15.01.2020 21:00:00 9,4 7,6 17 9 29 16 SSE 0,0
15.01.2020 20:00:00 9,5 6,7 16 9 29 16 SE 0,0
15.01.2020 19:00:00 9,3 3,9 11 6 19 10 SSE -
15.01.2020 18:00:00 11,5 2,9 8 4 26 14 S 0,0
15.01.2020 17:00:00 13,0 3,4 13 7 28 15 S 0,0
15.01.2020 16:00:00 13,3 3,4 16 9 29 16 S 0,0
15.01.2020 15:00:00 13,4 3,9 17 9 28 15 SSW 0,0
15.01.2020 14:00:00 12,1 7,0 14 7 27 15 S 0,0
15.01.2020 13:00:00 9,7 7,0 14 8 25 14 SE -
15.01.2020 12:00:00 8,4 6,7 12 6 21 12 ESE 0,0
15.01.2020 11:00:00 6,8 5,1 6 4 14 7 SE 0,0
15.01.2020 10:00:00 5,9 4,1 8 4 14 7 E 0,0
15.01.2020 09:00:00 6,3 4,3 5 3 31 17 SE 1,2
15.01.2020 08:00:00 6,5 4,8 10 6 44 24 S 4,2
15.01.2020 07:00:00 8,0 6,1 5 3 30 16 NW -
15.01.2020 06:00:00 9,1 6,2 11 6 33 18 SSW 1,6
15.01.2020 05:00:00 9,7 5,6 15 8 35 19 S 0,2
15.01.2020 04:00:00 9,7 5,1 18 10 45 24 SSE 0,0
15.01.2020 03:00:00 9,5 6,4 17 9 39 21 S 0,3
15.01.2020 02:00:00 7,6 6,1 17 9 39 21 SE 0,9
15.01.2020 01:00:00 8,7 7,3 17 9 39 21 S -
15.01.2020 00:00:00 7,1 5,8 16 9 35 19 SE 0,2
14.01.2020 23:00:00 6,6 5,0 19 11 37 20 SE 0,4
14.01.2020 22:00:00 7,9 4,6 18 10 41 22 SSE 0,1
14.01.2020 21:00:00 7,4 4,5 19 10 34 19 SSE 0,2
14.01.2020 20:00:00 7,8 3,6 16 9 36 19 SE 0,0
14.01.2020 19:00:00 8,2 3,6 20 11 42 23 S -
14.01.2020 18:00:00 8,7 3,6 23 12 42 23 SSE 0,0
14.01.2020 17:00:00 9,0 3,9 19 11 44 24 S 0,0
14.01.2020 16:00:00 8,5 4,3 18 10 34 19 S 0,0
14.01.2020 15:00:00 7,2 3,9 19 10 37 20 SSE 0,0
14.01.2020 14:00:00 9,7 3,0 16 9 40 22 S 0,0
14.01.2020 13:00:00 10,6 2,7 22 12 44 24 SSW -
14.01.2020 12:00:00 8,7 3,9 13 7 29 16 S 0,0
14.01.2020 11:00:00 6,1 2,9 17 9 34 19 SE 0,0
14.01.2020 10:00:00 5,4 2,7 16 8 32 18 S 0,0
14.01.2020 09:00:00 5,0 2,5 21 11 33 18 SSE 0,0
14.01.2020 08:00:00 4,7 2,5 19 10 35 19 SE 0,0
14.01.2020 07:00:00 4,3 2,5 21 11 34 18 SSE -
14.01.2020 06:00:00 4,4 2,7 17 9 31 17 SSE 0,0
14.01.2020 05:00:00 4,3 2,5 13 7 31 17 SE 0,0
14.01.2020 04:00:00 4,2 2,3 17 9 32 17 SSE 0,0
14.01.2020 03:00:00 4,6 2,5 19 10 34 19 SSE 0,0
14.01.2020 02:00:00 5,0 2,5 20 11 35 19 SSE 0,0
14.01.2020 01:00:00 5,7 3,0 16 8 27 15 SE -
14.01.2020 00:00:00 5,3 2,9 16 8 29 16 SE 0,0
13.01.2020 23:00:00 5,1 2,3 13 7 32 17 SE 0,0
13.01.2020 22:00:00 5,2 1,5 16 9 32 17 SE 0,0
13.01.2020 21:00:00 6,5 2,5 17 9 35 19 S 0,0
13.01.2020 20:00:00 6,1 2,1 11 6 29 16 S 0,0
13.01.2020 19:00:00 5,9 1,1 13 7 26 14 SSW -
13.01.2020 18:00:00 6,0 0,2 15 8 29 16 SSW 0,0
13.01.2020 17:00:00 7,7 -0,3 12 6 24 13 SW 0,0
13.01.2020 16:00:00 9,6 0,6 14 8 26 14 SW 0,0
13.01.2020 15:00:00 7,7 0,0 11 6 28 15 S 0,0
13.01.2020 14:00:00 8,9 0,4 11 6 24 13 SE 0,0
13.01.2020 13:00:00 6,1 0,6 9 5 26 14 ESE -
13.01.2020 12:00:00 3,8 0,6 12 6 22 12 SSE 0,0
13.01.2020 11:00:00 1,0 -0,3 12 7 19 10 SE 0,0
13.01.2020 10:00:00 0,1 -1,0 8 5 23 12 ESE 0,0
13.01.2020 09:00:00 0,0 -1,0 13 7 23 12 SE 0,0
13.01.2020 08:00:00 0,0 -1,0 12 7 19 10 SE 0,0
13.01.2020 07:00:00 -2,4 -3,3 6 3 13 7 SE -
13.01.2020 06:00:00 -3,8 -4,8 4 2 9 5 SW 0,0
13.01.2020 05:00:00 -3,1 -4,2 6 3 9 5 SSW 0,0
13.01.2020 04:00:00 -3,5 -4,8 6 4 11 6 WSW 0,0
13.01.2020 03:00:00 -2,8 -3,9 7 4 9 5 WSW 0,0
13.01.2020 02:00:00 -2,7 -3,9 3 1 6 3 WSW 0,0
13.01.2020 01:00:00 -2,0 -3,3 3 2 9 5 SSW -
13.01.2020 00:00:00 -1,7 -3,3 5 3 7 4 SW 0,0
12.01.2020 23:00:00 -1,0 -2,7 4 2 6 4 S 0,0
12.01.2020 22:00:00 -0,9 -3,3 2 1 4 2 NW 0,0
12.01.2020 21:00:00 0,2 -3,0 0 0 8 4 N 0,0
12.01.2020 20:00:00 2,6 -2,5 5 3 9 5 SW 0,0
12.01.2020 19:00:00 5,5 -1,7 4 2 6 4 ESE -
12.01.2020 18:00:00 10,3 -0,3 4 2 6 3 NNE 0,0
12.01.2020 17:00:00 12,4 0,4 4 2 6 4 ENE 0,0
12.01.2020 16:00:00 12,2 0,6 1 1 8 5 N 0,0
12.01.2020 15:00:00 11,4 0,9 1 1 7 4 N 0,0
12.01.2020 14:00:00 8,3 1,7 2 1 6 4 NNW 0,0

tt = Température de l'air
td = dewpoint
ff = Vitesse du vent
fx = gusts
dd = Direction du vent
rr = Quantités de précipitations

stations d'obs. à proximité